sensor_id;sensor_type;location;lat;lon;timestamp;pressure;altitude;pressure_sealevel;temperature;humidity
66880;BME280;53789;51.392;10.234;2023-01-25T00:00:13;100137.53;;;-0.07;83.43
66880;BME280;53789;51.392;10.234;2023-01-25T00:00:33;100140.25;;;-0.07;83.08
66880;BME280;53789;51.392;10.234;2023-01-25T00:00:53;100150.88;;;-0.05;83.52
66880;BME280;53789;51.392;10.234;2023-01-25T00:01:14;100137.53;;;-0.07;83.26
66880;BME280;53789;51.392;10.234;2023-01-25T00:01:34;100144.00;;;-0.08;82.24
66880;BME280;53789;51.392;10.234;2023-01-25T00:01:55;100141.31;;;-0.08;82.77
66880;BME280;53789;51.392;10.234;2023-01-25T00:02:15;100143.16;;;-0.08;82.95
66880;BME280;53789;51.392;10.234;2023-01-25T00:02:35;100142.13;;;-0.07;82.76
66880;BME280;53789;51.392;10.234;2023-01-25T00:02:55;100144.19;;;-0.09;82.24
66880;BME280;53789;51.392;10.234;2023-01-25T00:03:16;100145.84;;;-0.08;82.96
66880;BME280;53789;51.392;10.234;2023-01-25T00:03:36;100142.31;;;-0.09;82.65
66880;BME280;53789;51.392;10.234;2023-01-25T00:03:57;100145.84;;;-0.08;82.76
66880;BME280;53789;51.392;10.234;2023-01-25T00:04:21;100145.84;;;-0.08;82.96
66880;BME280;53789;51.392;10.234;2023-01-25T00:04:42;100144.00;;;-0.08;82.47
66880;BME280;53789;51.392;10.234;2023-01-25T00:05:02;100147.91;;;-0.10;82.12
66880;BME280;53789;51.392;10.234;2023-01-25T00:05:23;100150.25;;;-0.07;82.51
66880;BME280;53789;51.392;10.234;2023-01-25T00:05:43;100148.56;;;-0.08;82.01
66880;BME280;53789;51.392;10.234;2023-01-25T00:06:03;100143.16;;;-0.08;82.69
66880;BME280;53789;51.392;10.234;2023-01-25T00:06:24;100139.63;;;-0.09;82.52
66880;BME280;53789;51.392;10.234;2023-01-25T00:06:44;100145.22;;;-0.10;82.78
66880;BME280;53789;51.392;10.234;2023-01-25T00:07:05;100145.41;;;-0.12;83.21
66880;BME280;53789;51.392;10.234;2023-01-25T00:07:25;100144.38;;;-0.11;82.46
66880;BME280;53789;51.392;10.234;2023-01-25T00:07:45;100142.91;;;-0.14;83.55
66880;BME280;53789;51.392;10.234;2023-01-25T00:08:06;100146.22;;;-0.12;82.53
66880;BME280;53789;51.392;10.234;2023-01-25T00:08:26;100146.22;;;-0.12;82.66
66880;BME280;53789;51.392;10.234;2023-01-25T00:08:50;100138.97;;;-0.11;83.85
66880;BME280;53789;51.392;10.234;2023-01-25T00:09:11;100138.97;;;-0.11;83.90
66880;BME280;53789;51.392;10.234;2023-01-25T00:09:31;100140.81;;;-0.12;83.99
66880;BME280;53789;51.392;10.234;2023-01-25T00:09:51;100144.56;;;-0.13;83.94
66880;BME280;53789;51.392;10.234;2023-01-25T00:10:12;100145.59;;;-0.14;83.58
66880;BME280;53789;51.392;10.234;2023-01-25T00:10:32;100137.47;;;-0.14;83.96
66880;BME280;53789;51.392;10.234;2023-01-25T00:10:52;100137.47;;;-0.14;82.92
66880;BME280;53789;51.392;10.234;2023-01-25T00:11:12;100138.31;;;-0.13;83.18
66880;BME280;53789;51.392;10.234;2023-01-25T00:11:33;100138.31;;;-0.13;84.14
66880;BME280;53789;51.392;10.234;2023-01-25T00:11:53;100151.63;;;-0.12;83.53
66880;BME280;53789;51.392;10.234;2023-01-25T00:12:13;100146.22;;;-0.12;83.74
66880;BME280;53789;51.392;10.234;2023-01-25T00:12:34;100146.22;;;-0.12;83.10
66880;BME280;53789;51.392;10.234;2023-01-25T00:12:55;100144.56;;;-0.13;83.08
66880;BME280;53789;51.392;10.234;2023-01-25T00:13:15;100138.31;;;-0.13;83.78
66880;BME280;53789;51.392;10.234;2023-01-25T00:13:36;100134.78;;;-0.14;82.72
66880;BME280;53789;51.392;10.234;2023-01-25T00:13:56;100143.72;;;-0.13;82.85
66880;BME280;53789;51.392;10.234;2023-01-25T00:14:16;100147.09;;;-0.11;84.16
66880;BME280;53789;51.392;10.234;2023-01-25T00:14:37;100149.78;;;-0.11;83.15
66880;BME280;53789;51.392;10.234;2023-01-25T00:14:57;100144.38;;;-0.11;83.33
66880;BME280;53789;51.392;10.234;2023-01-25T00:15:17;100145.41;;;-0.12;83.22
66880;BME280;53789;51.392;10.234;2023-01-25T00:15:38;100144.56;;;-0.13;83.39
66880;BME280;53789;51.392;10.234;2023-01-25T00:16:02;100147.09;;;-0.11;82.99
66880;BME280;53789;51.392;10.234;2023-01-25T00:16:23;100145.41;;;-0.12;83.38
66880;BME280;53789;51.392;10.234;2023-01-25T00:16:43;100151.63;;;-0.12;82.99
66880;BME280;53789;51.392;10.234;2023-01-25T00:17:04;100144.56;;;-0.13;83.11
66880;BME280;53789;51.392;10.234;2023-01-25T00:17:25;100138.13;;;-0.12;83.36
66880;BME280;53789;51.392;10.234;2023-01-25T00:17:46;100147.09;;;-0.11;83.81
66880;BME280;53789;51.392;10.234;2023-01-25T00:18:06;100147.91;;;-0.10;83.89
66880;BME280;53789;51.392;10.234;2023-01-25T00:18:26;100146.03;;;-0.10;84.25
66880;BME280;53789;51.392;10.234;2023-01-25T00:18:47;100142.50;;;-0.10;83.26
66880;BME280;53789;51.392;10.234;2023-01-25T00:19:08;100145.03;;;-0.09;84.00
66880;BME280;53789;51.392;10.234;2023-01-25T00:19:29;100153.97;;;-0.08;83.45
66880;BME280;53789;51.392;10.234;2023-01-25T00:19:49;100149.41;;;-0.08;83.14
66880;BME280;53789;51.392;10.234;2023-01-25T00:20:10;100148.56;;;-0.08;83.92
66880;BME280;53789;51.392;10.234;2023-01-25T00:20:30;100144.19;;;-0.09;83.89
66880;BME280;53789;51.392;10.234;2023-01-25T00:20:50;100145.03;;;-0.09;82.73
66880;BME280;53789;51.392;10.234;2023-01-25T00:21:16;100149.59;;;-0.09;83.41
66880;BME280;53789;51.392;10.234;2023-01-25T00:21:37;100148.75;;;-0.10;84.01
66880;BME280;53789;51.392;10.234;2023-01-25T00:21:58;100152.31;;;-0.09;83.04
66880;BME280;53789;51.392;10.234;2023-01-25T00:22:18;100141.69;;;-0.11;83.38
66880;BME280;53789;51.392;10.234;2023-01-25T00:22:38;100154.16;;;-0.10;82.67
66880;BME280;53789;51.392;10.234;2023-01-25T00:22:59;100149.78;;;-0.11;83.13
66880;BME280;53789;51.392;10.234;2023-01-25T00:23:19;100150.00;;;-0.13;83.90
66880;BME280;53789;51.392;10.234;2023-01-25T00:23:39;100147.28;;;-0.13;82.59
66880;BME280;53789;51.392;10.234;2023-01-25T00:24:00;100156.22;;;-0.12;83.85
66880;BME280;53789;51.392;10.234;2023-01-25T00:24:20;100150.81;;;-0.12;83.63
66880;BME280;53789;51.392;10.234;2023-01-25T00:24:41;100147.28;;;-0.13;83.00
66880;BME280;53789;51.392;10.234;2023-01-25T00:25:01;100154.53;;;-0.13;83.43
66880;BME280;53789;51.392;10.234;2023-01-25T00:25:21;100147.47;;;-0.14;83.28
66880;BME280;53789;51.392;10.234;2023-01-25T00:25:41;100143.91;;;-0.15;83.41
66880;BME280;53789;51.392;10.234;2023-01-25T00:26:02;100153.72;;;-0.14;83.48
66880;BME280;53789;51.392;10.234;2023-01-25T00:26:22;100147.47;;;-0.14;83.43
66880;BME280;53789;51.392;10.234;2023-01-25T00:26:43;100145.59;;;-0.14;84.36
66880;BME280;53789;51.392;10.234;2023-01-25T00:27:03;100147.28;;;-0.13;84.08
66880;BME280;53789;51.392;10.234;2023-01-25T00:27:24;100153.34;;;-0.10;83.50
66880;BME280;53789;51.392;10.234;2023-01-25T00:27:44;100154.34;;;-0.12;83.91
66880;BME280;53789;51.392;10.234;2023-01-25T00:28:04;100152.31;;;-0.09;83.10
66880;BME280;53789;51.392;10.234;2023-01-25T00:28:24;100150.63;;;-0.10;84.51
66880;BME280;53789;51.392;10.234;2023-01-25T00:28:52;100145.22;;;-0.10;83.80
66880;BME280;53789;51.392;10.234;2023-01-25T00:29:13;100157.72;;;-0.09;83.35
66880;BME280;53789;51.392;10.234;2023-01-25T00:29:33;100147.72;;;-0.09;83.57
66880;BME280;53789;51.392;10.234;2023-01-25T00:29:54;100138.13;;;-0.12;83.76
66880;BME280;53789;51.392;10.234;2023-01-25T00:30:14;100155.84;;;-0.09;83.35
66880;BME280;53789;51.392;10.234;2023-01-25T00:30:34;100148.56;;;-0.08;83.58
66880;BME280;53789;51.392;10.234;2023-01-25T00:30:59;100152.13;;;-0.08;83.32
66880;BME280;53789;51.392;10.234;2023-01-25T00:32:27;100144.38;;;-0.11;82.78
66880;BME280;53789;51.392;10.234;2023-01-25T00:32:56;100149.59;;;-0.09;83.11
66880;BME280;53789;51.392;10.234;2023-01-25T00:33:32;100149.78;;;-0.11;82.68
66880;BME280;53789;51.392;10.234;2023-01-25T00:34:53;100135.41;;;-0.12;84.17
66880;BME280;53789;51.392;10.234;2023-01-25T00:35:13;100142.50;;;-0.10;83.48
66880;BME280;53789;51.392;10.234;2023-01-25T00:35:34;100137.28;;;-0.12;83.31
66880;BME280;53789;51.392;10.234;2023-01-25T00:35:55;100142.69;;;-0.12;83.73
66880;BME280;53789;51.392;10.234;2023-01-25T00:36:54;100133.75;;;-0.13;84.04
66880;BME280;53789;51.392;10.234;2023-01-25T00:37:23;100137.66;;;-0.15;82.94
66880;BME280;53789;51.392;10.234;2023-01-25T00:37:47;100134.78;;;-0.14;83.45
66880;BME280;53789;51.392;10.234;2023-01-25T00:38:29;100135.78;;;-0.15;83.59
66880;BME280;53789;51.392;10.234;2023-01-25T00:38:52;100135.59;;;-0.13;83.91
66880;BME280;53789;51.392;10.234;2023-01-25T00:39:13;100136.66;;;-0.14;83.36
66880;BME280;53789;51.392;10.234;2023-01-25T00:39:33;100136.47;;;-0.13;83.29
66880;BME280;53789;51.392;10.234;2023-01-25T00:39:53;100137.47;;;-0.14;83.44
66880;BME280;53789;51.392;10.234;2023-01-25T00:40:14;100138.31;;;-0.13;83.86
66880;BME280;53789;51.392;10.234;2023-01-25T00:40:35;100137.66;;;-0.15;84.13
66880;BME280;53789;51.392;10.234;2023-01-25T00:40:57;100138.50;;;-0.15;83.34
66880;BME280;53789;51.392;10.234;2023-01-25T00:41:17;100137.47;;;-0.14;83.44
66880;BME280;53789;51.392;10.234;2023-01-25T00:41:38;100131.44;;;-0.16;82.85
66880;BME280;53789;51.392;10.234;2023-01-25T00:41:59;100136.66;;;-0.14;83.50
66880;BME280;53789;51.392;10.234;2023-01-25T00:42:19;100140.38;;;-0.15;83.30
66880;BME280;53789;51.392;10.234;2023-01-25T00:42:40;100138.50;;;-0.15;83.24
66880;BME280;53789;51.392;10.234;2023-01-25T00:43:00;100139.38;;;-0.14;83.97
66880;BME280;53789;51.392;10.234;2023-01-25T00:43:21;100137.47;;;-0.14;84.39
66880;BME280;53789;51.392;10.234;2023-01-25T00:43:41;100131.25;;;-0.14;84.17
66880;BME280;53789;51.392;10.234;2023-01-25T00:44:01;100137.47;;;-0.14;83.52
66880;BME280;53789;51.392;10.234;2023-01-25T00:44:22;100139.16;;;-0.13;83.92
66880;BME280;53789;51.392;10.234;2023-01-25T00:44:42;100135.41;;;-0.12;84.35
66880;BME280;53789;51.392;10.234;2023-01-25T00:45:03;100133.75;;;-0.13;83.68
66880;BME280;53789;51.392;10.234;2023-01-25T00:45:24;100137.09;;;-0.10;83.99
66880;BME280;53789;51.392;10.234;2023-01-25T00:45:44;100128.16;;;-0.11;83.44
66880;BME280;53789;51.392;10.234;2023-01-25T00:46:04;100129.81;;;-0.10;84.13
66880;BME280;53789;51.392;10.234;2023-01-25T00:46:25;100123.56;;;-0.10;83.58
66880;BME280;53789;51.392;10.234;2023-01-25T00:46:45;100137.09;;;-0.10;84.06
66880;BME280;53789;51.392;10.234;2023-01-25T00:47:06;100125.44;;;-0.11;83.55
66880;BME280;53789;51.392;10.234;2023-01-25T00:47:27;100129.81;;;-0.10;82.79
66880;BME280;53789;51.392;10.234;2023-01-25T00:47:48;100128.34;;;-0.13;83.29
66880;BME280;53789;51.392;10.234;2023-01-25T00:48:08;100126.66;;;-0.14;84.17
66880;BME280;53789;51.392;10.234;2023-01-25T00:48:28;100131.25;;;-0.14;83.32
66880;BME280;53789;51.392;10.234;2023-01-25T00:48:52;100126.03;;;-0.16;83.20
66880;BME280;53789;51.392;10.234;2023-01-25T00:49:31;100126.19;;;-0.17;83.59
66880;BME280;53789;51.392;10.234;2023-01-25T00:49:51;100128.06;;;-0.18;83.65
66880;BME280;53789;51.392;10.234;2023-01-25T00:50:11;100117.44;;;-0.19;83.92
66880;BME280;53789;51.392;10.234;2023-01-25T00:50:32;100124.53;;;-0.18;84.48
66880;BME280;53789;51.392;10.234;2023-01-25T00:50:52;100117.63;;;-0.21;84.40
66880;BME280;53789;51.392;10.234;2023-01-25T00:51:13;100127.63;;;-0.21;83.33
66880;BME280;53789;51.392;10.234;2023-01-25T00:51:33;100126.75;;;-0.22;84.39
66880;BME280;53789;51.392;10.234;2023-01-25T00:51:54;100121.34;;;-0.22;83.56
66880;BME280;53789;51.392;10.234;2023-01-25T00:52:14;100122.59;;;-0.24;82.88
66880;BME280;53789;51.392;10.234;2023-01-25T00:52:34;100122.41;;;-0.23;83.52
66880;BME280;53789;51.392;10.234;2023-01-25T00:52:55;100129.47;;;-0.22;83.51
66880;BME280;53789;51.392;10.234;2023-01-25T00:53:15;100118.84;;;-0.23;84.15
66880;BME280;53789;51.392;10.234;2023-01-25T00:53:36;100115.13;;;-0.22;83.88
66880;BME280;53789;51.392;10.234;2023-01-25T00:53:56;100122.41;;;-0.23;83.76
66880;BME280;53789;51.392;10.234;2023-01-25T00:54:17;100121.53;;;-0.23;83.69
66880;BME280;53789;51.392;10.234;2023-01-25T00:54:38;100119.69;;;-0.23;84.88
66880;BME280;53789;51.392;10.234;2023-01-25T00:54:58;100122.41;;;-0.23;84.69
66880;BME280;53789;51.392;10.234;2023-01-25T00:55:18;100124.91;;;-0.21;83.28
66880;BME280;53789;51.392;10.234;2023-01-25T00:55:39;100121.34;;;-0.22;83.86
66880;BME280;53789;51.392;10.234;2023-01-25T00:55:59;100122.41;;;-0.23;83.89
66880;BME280;53789;51.392;10.234;2023-01-25T00:56:19;100122.41;;;-0.23;83.35
66880;BME280;53789;51.392;10.234;2023-01-25T00:56:40;100120.72;;;-0.24;82.76
66880;BME280;53789;51.392;10.234;2023-01-25T00:57:00;100118.00;;;-0.24;83.85
66880;BME280;53789;51.392;10.234;2023-01-25T00:57:20;100123.41;;;-0.24;83.10
66880;BME280;53789;51.392;10.234;2023-01-25T00:57:41;100113.63;;;-0.25;83.65
66880;BME280;53789;51.392;10.234;2023-01-25T00:58:01;100120.72;;;-0.24;84.47
66880;BME280;53789;51.392;10.234;2023-01-25T00:58:21;100113.44;;;-0.23;84.15
66880;BME280;53789;51.392;10.234;2023-01-25T00:58:41;100118.00;;;-0.24;83.73
66880;BME280;53789;51.392;10.234;2023-01-25T00:59:02;100114.28;;;-0.23;83.96
66880;BME280;53789;51.392;10.234;2023-01-25T00:59:23;100115.31;;;-0.24;83.50
66880;BME280;53789;51.392;10.234;2023-01-25T00:59:43;100113.44;;;-0.23;83.61
66880;BME280;53789;51.392;10.234;2023-01-25T01:00:04;100115.31;;;-0.24;83.83
66880;BME280;53789;51.392;10.234;2023-01-25T01:00:25;100110.72;;;-0.23;84.21
66880;BME280;53789;51.392;10.234;2023-01-25T01:00:45;100108.03;;;-0.23;83.75
66880;BME280;53789;51.392;10.234;2023-01-25T01:01:05;100116.31;;;-0.25;84.20
66880;BME280;53789;51.392;10.234;2023-01-25T01:01:26;100117.00;;;-0.23;83.92
66880;BME280;53789;51.392;10.234;2023-01-25T01:01:46;100113.63;;;-0.25;84.11
66880;BME280;53789;51.392;10.234;2023-01-25T01:02:06;100109.91;;;-0.24;83.11
66880;BME280;53789;51.392;10.234;2023-01-25T01:02:26;100115.13;;;-0.22;83.95
66880;BME280;53789;51.392;10.234;2023-01-25T01:02:49;100112.41;;;-0.22;83.79
66880;BME280;53789;51.392;10.234;2023-01-25T01:03:09;100117.19;;;-0.24;83.09
66880;BME280;53789;51.392;10.234;2023-01-25T01:03:30;100116.31;;;-0.25;83.09
66880;BME280;53789;51.392;10.234;2023-01-25T01:03:50;100117.19;;;-0.24;83.51
66880;BME280;53789;51.392;10.234;2023-01-25T01:04:11;100113.63;;;-0.25;84.40
66880;BME280;53789;51.392;10.234;2023-01-25T01:04:31;100112.78;;;-0.25;83.69
66880;BME280;53789;51.392;10.234;2023-01-25T01:04:51;100100.09;;;-0.25;84.62
66880;BME280;53789;51.392;10.234;2023-01-25T01:05:12;100115.31;;;-0.24;84.33
66880;BME280;53789;51.392;10.234;2023-01-25T01:05:32;100112.59;;;-0.24;84.10
66880;BME280;53789;51.392;10.234;2023-01-25T01:06:05;100116.31;;;-0.25;84.74
66880;BME280;53789;51.392;10.234;2023-01-25T01:06:25;100111.78;;;-0.24;84.48
66880;BME280;53789;51.392;10.234;2023-01-25T01:06:45;100113.63;;;-0.25;83.25
66880;BME280;53789;51.392;10.234;2023-01-25T01:07:06;100112.78;;;-0.25;84.43
66880;BME280;53789;51.392;10.234;2023-01-25T01:07:26;100117.38;;;-0.26;83.69
66880;BME280;53789;51.392;10.234;2023-01-25T01:07:48;100118.19;;;-0.25;83.47
66880;BME280;53789;51.392;10.234;2023-01-25T01:08:10;100116.72;;;-0.28;83.32
66880;BME280;53789;51.392;10.234;2023-01-25T01:08:35;100109.44;;;-0.27;83.79
66880;BME280;53789;51.392;10.234;2023-01-25T01:08:57;100119.41;;;-0.28;84.12
66880;BME280;53789;51.392;10.234;2023-01-25T01:09:18;100110.47;;;-0.28;84.16
66880;BME280;53789;51.392;10.234;2023-01-25T01:09:39;100107.75;;;-0.28;83.81
66880;BME280;53789;51.392;10.234;2023-01-25T01:09:59;100115.03;;;-0.29;83.52
66880;BME280;53789;51.392;10.234;2023-01-25T01:10:20;100116.91;;;-0.30;83.53
66880;BME280;53789;51.392;10.234;2023-01-25T01:10:40;100113.38;;;-0.30;83.67
66880;BME280;53789;51.392;10.234;2023-01-25T01:11:02;100109.81;;;-0.31;83.74
66880;BME280;53789;51.392;10.234;2023-01-25T01:11:23;100112.50;;;-0.31;84.00
66880;BME280;53789;51.392;10.234;2023-01-25T01:11:43;100114.38;;;-0.31;84.38
66880;BME280;53789;51.392;10.234;2023-01-25T01:12:04;100114.19;;;-0.30;84.33
66880;BME280;53789;51.392;10.234;2023-01-25T01:12:24;100115.22;;;-0.31;83.93
66880;BME280;53789;51.392;10.234;2023-01-25T01:12:44;100108.97;;;-0.31;84.04
66880;BME280;53789;51.392;10.234;2023-01-25T01:13:05;100112.50;;;-0.31;84.62
66880;BME280;53789;51.392;10.234;2023-01-25T01:13:29;100114.38;;;-0.31;84.47
66880;BME280;53789;51.392;10.234;2023-01-25T01:13:50;100110.66;;;-0.30;83.69
66880;BME280;53789;51.392;10.234;2023-01-25T01:14:11;100115.22;;;-0.31;83.48
66880;BME280;53789;51.392;10.234;2023-01-25T01:14:31;100112.50;;;-0.31;83.61
66880;BME280;53789;51.392;10.234;2023-01-25T01:14:51;100113.38;;;-0.30;84.50
66880;BME280;53789;51.392;10.234;2023-01-25T01:15:12;100115.22;;;-0.31;83.43
66880;BME280;53789;51.392;10.234;2023-01-25T01:15:36;100119.97;;;-0.33;84.19
66880;BME280;53789;51.392;10.234;2023-01-25T01:16:00;100115.59;;;-0.34;84.02
66880;BME280;53789;51.392;10.234;2023-01-25T01:16:21;100113.09;;;-0.35;84.01
66880;BME280;53789;51.392;10.234;2023-01-25T01:16:41;100111.22;;;-0.35;84.37
66880;BME280;53789;51.392;10.234;2023-01-25T01:17:01;100117.66;;;-0.36;83.81
66880;BME280;53789;51.392;10.234;2023-01-25T01:17:22;100112.25;;;-0.36;83.53
66880;BME280;53789;51.392;10.234;2023-01-25T01:17:43;100115.78;;;-0.35;84.53
66880;BME280;53789;51.392;10.234;2023-01-25T01:18:03;100113.09;;;-0.35;84.01
66880;BME280;53789;51.392;10.234;2023-01-25T01:18:23;100113.09;;;-0.35;83.60
66880;BME280;53789;51.392;10.234;2023-01-25T01:18:44;100117.66;;;-0.36;83.99
66880;BME280;53789;51.392;10.234;2023-01-25T01:19:05;100109.75;;;-0.37;84.26
66880;BME280;53789;51.392;10.234;2023-01-25T01:19:25;100115.16;;;-0.37;84.62
66880;BME280;53789;51.392;10.234;2023-01-25T01:19:45;100109.75;;;-0.37;84.16
66880;BME280;53789;51.392;10.234;2023-01-25T01:20:06;100120.38;;;-0.36;84.79
66880;BME280;53789;51.392;10.234;2023-01-25T01:20:26;100112.44;;;-0.37;84.94
66880;BME280;53789;51.392;10.234;2023-01-25T01:20:51;100115.97;;;-0.37;84.57
66880;BME280;53789;51.392;10.234;2023-01-25T01:21:12;100116.84;;;-0.36;84.77
66880;BME280;53789;51.392;10.234;2023-01-25T01:21:33;100114.97;;;-0.36;84.18
66880;BME280;53789;51.392;10.234;2023-01-25T01:21:53;100116.84;;;-0.36;85.33
66880;BME280;53789;51.392;10.234;2023-01-25T01:22:13;100117.66;;;-0.36;84.33
66880;BME280;53789;51.392;10.234;2023-01-25T01:22:33;100115.78;;;-0.35;84.77
66880;BME280;53789;51.392;10.234;2023-01-25T01:22:54;100115.78;;;-0.35;85.60
66880;BME280;53789;51.392;10.234;2023-01-25T01:23:14;100120.19;;;-0.34;85.66
66880;BME280;53789;51.392;10.234;2023-01-25T01:23:35;100114.56;;;-0.33;85.36
66880;BME280;53789;51.392;10.234;2023-01-25T01:23:56;100115.41;;;-0.32;84.93
66880;BME280;53789;51.392;10.234;2023-01-25T01:24:16;100111.69;;;-0.31;85.09
66880;BME280;53789;51.392;10.234;2023-01-25T01:24:37;100118.78;;;-0.30;85.16
66880;BME280;53789;51.392;10.234;2023-01-25T01:24:57;100122.31;;;-0.30;84.28
66880;BME280;53789;51.392;10.234;2023-01-25T01:25:17;100120.44;;;-0.29;85.04
66880;BME280;53789;51.392;10.234;2023-01-25T01:25:37;100120.28;;;-0.27;84.89
66880;BME280;53789;51.392;10.234;2023-01-25T01:25:59;100121.09;;;-0.27;84.61
66880;BME280;53789;51.392;10.234;2023-01-25T01:26:20;100120.91;;;-0.25;84.40
66880;BME280;53789;51.392;10.234;2023-01-25T01:26:40;100121.72;;;-0.25;84.92
66880;BME280;53789;51.392;10.234;2023-01-25T01:27:00;100115.31;;;-0.24;84.48
66880;BME280;53789;51.392;10.234;2023-01-25T01:27:21;100120.72;;;-0.24;83.74
66880;BME280;53789;51.392;10.234;2023-01-25T01:27:41;100118.84;;;-0.23;83.57
66880;BME280;53789;51.392;10.234;2023-01-25T01:28:01;100120.72;;;-0.24;84.68
66880;BME280;53789;51.392;10.234;2023-01-25T01:28:22;100122.41;;;-0.23;84.20
66880;BME280;53789;51.392;10.234;2023-01-25T01:28:42;100122.41;;;-0.23;84.14
66880;BME280;53789;51.392;10.234;2023-01-25T01:29:02;100116.13;;;-0.23;83.75
66880;BME280;53789;51.392;10.234;2023-01-25T01:29:23;100118.84;;;-0.23;83.18
66880;BME280;53789;51.392;10.234;2023-01-25T01:29:43;100117.00;;;-0.23;83.98
66880;BME280;53789;51.392;10.234;2023-01-25T01:30:04;100114.47;;;-0.24;84.55
66880;BME280;53789;51.392;10.234;2023-01-25T01:30:25;100116.13;;;-0.23;83.78
66880;BME280;53789;51.392;10.234;2023-01-25T01:30:45;100122.41;;;-0.23;84.49
66880;BME280;53789;51.392;10.234;2023-01-25T01:31:09;100125.94;;;-0.22;84.79
66880;BME280;53789;51.392;10.234;2023-01-25T01:31:30;100116.13;;;-0.23;83.60
66880;BME280;53789;51.392;10.234;2023-01-25T01:31:51;100120.53;;;-0.22;84.32
66880;BME280;53789;51.392;10.234;2023-01-25T01:32:11;100115.31;;;-0.24;83.94
66880;BME280;53789;51.392;10.234;2023-01-25T01:32:31;100121.53;;;-0.23;83.54
66880;BME280;53789;51.392;10.234;2023-01-25T01:32:52;100111.78;;;-0.24;84.08
66880;BME280;53789;51.392;10.234;2023-01-25T01:33:12;100110.91;;;-0.25;83.77
66880;BME280;53789;51.392;10.234;2023-01-25T01:33:32;100114.47;;;-0.24;83.92
66880;BME280;53789;51.392;10.234;2023-01-25T01:33:55;100111.09;;;-0.26;83.48
66880;BME280;53789;51.392;10.234;2023-01-25T01:34:16;100114.00;;;-0.28;83.78
66880;BME280;53789;51.392;10.234;2023-01-25T01:34:36;100114.88;;;-0.27;84.45
66880;BME280;53789;51.392;10.234;2023-01-25T01:34:56;100114.38;;;-0.31;82.85
66880;BME280;53789;51.392;10.234;2023-01-25T01:35:17;100106.47;;;-0.33;83.58
66880;BME280;53789;51.392;10.234;2023-01-25T01:35:37;100116.44;;;-0.33;83.20
66880;BME280;53789;51.392;10.234;2023-01-25T01:35:57;100111.03;;;-0.33;84.14
66880;BME280;53789;51.392;10.234;2023-01-25T01:36:20;100111.44;;;-0.36;84.58
66880;BME280;53789;51.392;10.234;2023-01-25T01:36:40;100112.25;;;-0.36;83.55
66880;BME280;53789;51.392;10.234;2023-01-25T01:37:01;100108.72;;;-0.36;83.39
66880;BME280;53789;51.392;10.234;2023-01-25T01:37:21;100110.56;;;-0.37;84.42
66880;BME280;53789;51.392;10.234;2023-01-25T01:37:42;100111.63;;;-0.38;84.72
66880;BME280;53789;51.392;10.234;2023-01-25T01:38:02;100117.22;;;-0.39;82.83
66880;BME280;53789;51.392;10.234;2023-01-25T01:38:23;100112.63;;;-0.39;84.26
66880;BME280;53789;51.392;10.234;2023-01-25T01:38:44;100116.34;;;-0.40;84.02
66880;BME280;53789;51.392;10.234;2023-01-25T01:39:04;100108.25;;;-0.40;84.54
66880;BME280;53789;51.392;10.234;2023-01-25T01:39:25;100111.81;;;-0.39;83.32
66880;BME280;53789;51.392;10.234;2023-01-25T01:39:45;100113.84;;;-0.41;83.08
66880;BME280;53789;51.392;10.234;2023-01-25T01:40:06;100114.84;;;-0.42;83.21
66880;BME280;53789;51.392;10.234;2023-01-25T01:40:27;100120.25;;;-0.42;83.98
66880;BME280;53789;51.392;10.234;2023-01-25T01:40:49;100113.84;;;-0.41;83.68
66880;BME280;53789;51.392;10.234;2023-01-25T01:41:10;100119.25;;;-0.41;84.25
66880;BME280;53789;51.392;10.234;2023-01-25T01:41:30;100113.84;;;-0.41;83.81
66880;BME280;53789;51.392;10.234;2023-01-25T01:41:51;100119.25;;;-0.41;83.99
66880;BME280;53789;51.392;10.234;2023-01-25T01:42:11;100106.56;;;-0.41;85.09
66880;BME280;53789;51.392;10.234;2023-01-25T01:42:31;100110.31;;;-0.42;84.72
66880;BME280;53789;51.392;10.234;2023-01-25T01:43:03;100113.84;;;-0.41;84.36
66880;BME280;53789;51.392;10.234;2023-01-25T01:43:24;100113.66;;;-0.40;84.20
66880;BME280;53789;51.392;10.234;2023-01-25T01:43:44;100109.09;;;-0.39;83.81
66880;BME280;53789;51.392;10.234;2023-01-25T01:44:05;100110.94;;;-0.40;84.91
66880;BME280;53789;51.392;10.234;2023-01-25T01:44:48;100115.34;;;-0.39;83.76
66880;BME280;53789;51.392;10.234;2023-01-25T01:46:10;100110.75;;;-0.38;84.19
66880;BME280;53789;51.392;10.234;2023-01-25T01:46:38;100113.47;;;-0.38;84.44
66880;BME280;53789;51.392;10.234;2023-01-25T01:46:58;100104.34;;;-0.37;84.27
66880;BME280;53789;51.392;10.234;2023-01-25T01:47:29;100110.56;;;-0.37;83.69
66880;BME280;53789;51.392;10.234;2023-01-25T01:47:54;100101.63;;;-0.37;84.01
66880;BME280;53789;51.392;10.234;2023-01-25T01:49:26;100109.75;;;-0.37;84.74
66880;BME280;53789;51.392;10.234;2023-01-25T01:50:00;100102.44;;;-0.37;83.86
66880;BME280;53789;51.392;10.234;2023-01-25T01:50:23;100107.03;;;-0.37;83.45
66880;BME280;53789;51.392;10.234;2023-01-25T01:50:45;100104.97;;;-0.35;83.90
66880;BME280;53789;51.392;10.234;2023-01-25T01:52:11;100106.00;;;-0.36;84.10
66880;BME280;53789;51.392;10.234;2023-01-25T01:52:36;100107.66;;;-0.35;84.12
66880;BME280;53789;51.392;10.234;2023-01-25T01:52:56;100106.00;;;-0.36;83.58
66880;BME280;53789;51.392;10.234;2023-01-25T01:53:19;100106.84;;;-0.36;83.94
66880;BME280;53789;51.392;10.234;2023-01-25T01:53:44;100109.34;;;-0.34;84.03
66880;BME280;53789;51.392;10.234;2023-01-25T01:54:52;100104.78;;;-0.34;83.48
66880;BME280;53789;51.392;10.234;2023-01-25T01:55:21;100109.16;;;-0.33;83.71
66880;BME280;53789;51.392;10.234;2023-01-25T01:55:42;100103.75;;;-0.33;84.29
66880;BME280;53789;51.392;10.234;2023-01-25T01:56:07;100100.88;;;-0.31;84.09
66880;BME280;53789;51.392;10.234;2023-01-25T01:56:45;100101.69;;;-0.31;84.38
66880;BME280;53789;51.392;10.234;2023-01-25T01:57:21;100103.38;;;-0.30;84.07